Bierset, Belgium

12:17 AM CEST on April 02, 2015 (GMT +0200)
Maastricht-Aachen | | Change Station
CLOSE
Current Station
Airport
Location: Maastricht,
Elevation: 374 ft
Nearby Weather Stations

Elev 374 ft 50.91 °N, 5.76 °E | Updated 22 minutes ago

Drizzle
Drizzle
43 °F
Feels Like 35 °F
N
16
Wind Variable Wind from WSW

Today
High -- | Low -- °F
--% Chance of Precip.
Yesterday
High -- | Low -- °F
Precip. -- in
7:13 AM 8:11 PM
Waxing Gibbous, 94% visible
Pressure 30.06 in
Visibility 6.2 miles
Clouds Few 1300 ft
Mostly Cloudy 2400 ft
Mostly Cloudy 2700 ft
Windchill 35 °F
Dew Point 37 °F
Humidity 81%
Rainfall 0.00 in
Snow Depth Not available.
UV 0 out of 12
Pollen Not available.
Air Quality Not available.
Flu Activity Not available.
METAR EHBK 012155Z AUTO 25014KT 210V310 9999 DZ FEW013 BKN024 BKN027 06/03 Q1018 REDZ

More Conditions Fewer Conditions

Pressure 30.06 in
Visibility 6.2 miles
Clouds Few 1300 ft
Mostly Cloudy 2400 ft
Mostly Cloudy 2700 ft
Windchill 35 °F
Dew Point 37 °F
Humidity 81%
Rainfall 0.00 in
Snow Depth Not available.
UV 0 out of 12
Pollen Not available.
Air Quality Not available.
Flu Activity Not available.
METAR EHBK 012155Z AUTO 25014KT 210V310 9999 DZ FEW013 BKN024 BKN027 06/03 Q1018 REDZ

More Conditions Fewer Conditions

10-Day Weather Forecast

Almanac

Astronomy

Apr. 02, 2015 Rise Set
Actual Time
Civil Twilight
Nautical Twilight
Astronomical Twilight
Moon
Length of Visible Light
Length of Day
Tomorrow will be .
, % of the Moon is Illuminated

Today's Extremes

Country Highs Country Lows

Community

WunderPhotos

Upload Photos

1,810,095 photos uploaded!

WunderBlogs® & News

Nearby

Air Quality

  Air Quality AQ Index Pollutant
Not available.

Snow Depth

Station Depth Elevation

Earthquake Activity

City Distance Mag. Time & Date
Minimum magnitude displayed is 2.5.

Coastal Water Temperatures

Place Temperature

Stations

Nearby Weather Stations

Station Location Temp. Windchill Dew Point Humidity Wind Precip. Elev Updated Type